sensor_id;sensor_type;location;lat;lon;timestamp;temperature;humidity
9033;DHT22;4551;53.164;8.210;2023-05-10T00:01:53;15.70;99.90
9033;DHT22;4551;53.164;8.210;2023-05-10T00:04:23;15.70;99.90
9033;DHT22;4551;53.164;8.210;2023-05-10T00:06:54;15.60;99.90
9033;DHT22;4551;53.164;8.210;2023-05-10T00:09:24;15.60;99.90
9033;DHT22;4551;53.164;8.210;2023-05-10T00:11:52;15.60;99.90
9033;DHT22;4551;53.164;8.210;2023-05-10T00:14:20;15.60;99.90
9033;DHT22;4551;53.164;8.210;2023-05-10T00:16:48;15.60;99.90
9033;DHT22;4551;53.164;8.210;2023-05-10T00:19:16;15.60;99.90
9033;DHT22;4551;53.164;8.210;2023-05-10T00:21:47;15.60;99.90
9033;DHT22;4551;53.164;8.210;2023-05-10T00:24:15;15.50;99.90
9033;DHT22;4551;53.164;8.210;2023-05-10T00:26:43;15.50;99.90
9033;DHT22;4551;53.164;8.210;2023-05-10T00:29:11;15.40;99.90
9033;DHT22;4551;53.164;8.210;2023-05-10T00:31:39;15.40;99.90
9033;DHT22;4551;53.164;8.210;2023-05-10T00:34:07;15.50;99.90
9033;DHT22;4551;53.164;8.210;2023-05-10T00:36:38;15.40;99.90
9033;DHT22;4551;53.164;8.210;2023-05-10T00:39:07;15.40;99.90
9033;DHT22;4551;53.164;8.210;2023-05-10T00:41:35;15.40;99.90
9033;DHT22;4551;53.164;8.210;2023-05-10T00:44:03;15.30;99.90
9033;DHT22;4551;53.164;8.210;2023-05-10T00:46:31;15.30;99.90
9033;DHT22;4551;53.164;8.210;2023-05-10T00:49:00;15.30;99.90
9033;DHT22;4551;53.164;8.210;2023-05-10T00:51:30;15.30;99.90
9033;DHT22;4551;53.164;8.210;2023-05-10T00:53:58;15.30;99.90
9033;DHT22;4551;53.164;8.210;2023-05-10T00:56:28;15.30;99.90
9033;DHT22;4551;53.164;8.210;2023-05-10T00:58:56;15.30;99.90
9033;DHT22;4551;53.164;8.210;2023-05-10T01:01:24;15.40;99.90
9033;DHT22;4551;53.164;8.210;2023-05-10T01:03:52;15.40;99.90
9033;DHT22;4551;53.164;8.210;2023-05-10T01:06:20;15.40;99.90
9033;DHT22;4551;53.164;8.210;2023-05-10T01:08:48;15.30;99.90
9033;DHT22;4551;53.164;8.210;2023-05-10T01:11:16;15.40;99.90
9033;DHT22;4551;53.164;8.210;2023-05-10T01:13:47;15.40;99.90
9033;DHT22;4551;53.164;8.210;2023-05-10T01:16:18;15.40;99.90
9033;DHT22;4551;53.164;8.210;2023-05-10T01:18:46;15.40;99.90
9033;DHT22;4551;53.164;8.210;2023-05-10T01:21:17;15.40;99.90
9033;DHT22;4551;53.164;8.210;2023-05-10T01:23:55;15.40;99.90
9033;DHT22;4551;53.164;8.210;2023-05-10T01:26:46;15.40;99.90
9033;DHT22;4551;53.164;8.210;2023-05-10T01:29:30;15.40;99.90
9033;DHT22;4551;53.164;8.210;2023-05-10T01:32:12;15.30;99.90
9033;DHT22;4551;53.164;8.210;2023-05-10T01:34:46;15.30;99.90
9033;DHT22;4551;53.164;8.210;2023-05-10T01:37:15;15.30;99.90
9033;DHT22;4551;53.164;8.210;2023-05-10T01:39:47;15.20;99.90
9033;DHT22;4551;53.164;8.210;2023-05-10T01:42:19;15.20;99.90
9033;DHT22;4551;53.164;8.210;2023-05-10T01:44:49;15.20;99.90
9033;DHT22;4551;53.164;8.210;2023-05-10T01:47:23;15.20;99.90
9033;DHT22;4551;53.164;8.210;2023-05-10T01:49:56;15.20;99.90
9033;DHT22;4551;53.164;8.210;2023-05-10T01:52:30;15.20;99.90
9033;DHT22;4551;53.164;8.210;2023-05-10T01:55:00;15.10;99.90
9033;DHT22;4551;53.164;8.210;2023-05-10T01:57:32;15.10;99.90
9033;DHT22;4551;53.164;8.210;2023-05-10T02:00:00;15.10;99.90
9033;DHT22;4551;53.164;8.210;2023-05-10T02:02:31;15.10;99.90
9033;DHT22;4551;53.164;8.210;2023-05-10T02:05:06;15.10;99.90
9033;DHT22;4551;53.164;8.210;2023-05-10T02:07:36;15.10;99.90
9033;DHT22;4551;53.164;8.210;2023-05-10T02:10:04;15.10;99.90
9033;DHT22;4551;53.164;8.210;2023-05-10T02:12:35;15.20;99.90
9033;DHT22;4551;53.164;8.210;2023-05-10T02:15:04;15.10;99.90
9033;DHT22;4551;53.164;8.210;2023-05-10T02:17:37;15.10;99.90
9033;DHT22;4551;53.164;8.210;2023-05-10T02:20:05;15.10;99.90
9033;DHT22;4551;53.164;8.210;2023-05-10T02:22:34;15.10;99.90
9033;DHT22;4551;53.164;8.210;2023-05-10T02:25:03;15.10;99.90
9033;DHT22;4551;53.164;8.210;2023-05-10T02:27:33;15.10;99.90
9033;DHT22;4551;53.164;8.210;2023-05-10T02:30:02;15.10;99.90
9033;DHT22;4551;53.164;8.210;2023-05-10T02:32:31;15.00;99.90
9033;DHT22;4551;53.164;8.210;2023-05-10T02:35:00;15.10;99.90
9033;DHT22;4551;53.164;8.210;2023-05-10T02:37:29;15.10;99.90
9033;DHT22;4551;53.164;8.210;2023-05-10T02:39:58;15.10;99.90
9033;DHT22;4551;53.164;8.210;2023-05-10T02:42:31;15.10;99.90
9033;DHT22;4551;53.164;8.210;2023-05-10T02:45:00;15.10;99.90
9033;DHT22;4551;53.164;8.210;2023-05-10T02:47:30;15.00;99.90
9033;DHT22;4551;53.164;8.210;2023-05-10T02:50:00;15.00;99.90
9033;DHT22;4551;53.164;8.210;2023-05-10T02:52:30;15.00;99.90
9033;DHT22;4551;53.164;8.210;2023-05-10T02:55:02;15.00;99.90
9033;DHT22;4551;53.164;8.210;2023-05-10T02:57:32;15.00;99.90
9033;DHT22;4551;53.164;8.210;2023-05-10T03:00:01;15.00;99.90
9033;DHT22;4551;53.164;8.210;2023-05-10T03:02:30;15.00;99.90
9033;DHT22;4551;53.164;8.210;2023-05-10T03:04:58;15.00;99.90
9033;DHT22;4551;53.164;8.210;2023-05-10T03:07:28;15.00;99.90
9033;DHT22;4551;53.164;8.210;2023-05-10T03:09:56;15.00;99.90
9033;DHT22;4551;53.164;8.210;2023-05-10T03:12:27;15.00;99.90
9033;DHT22;4551;53.164;8.210;2023-05-10T03:15:00;15.00;99.90
9033;DHT22;4551;53.164;8.210;2023-05-10T03:17:30;15.00;99.90
9033;DHT22;4551;53.164;8.210;2023-05-10T03:19:59;15.00;99.90
9033;DHT22;4551;53.164;8.210;2023-05-10T03:22:34;15.00;99.90
9033;DHT22;4551;53.164;8.210;2023-05-10T03:25:04;15.00;99.90
9033;DHT22;4551;53.164;8.210;2023-05-10T03:27:33;15.10;99.90
9033;DHT22;4551;53.164;8.210;2023-05-10T03:30:05;15.10;99.90
9033;DHT22;4551;53.164;8.210;2023-05-10T03:32:33;15.00;99.90
9033;DHT22;4551;53.164;8.210;2023-05-10T03:35:05;15.00;99.90
9033;DHT22;4551;53.164;8.210;2023-05-10T03:37:35;14.90;99.90
9033;DHT22;4551;53.164;8.210;2023-05-10T03:40:03;14.80;99.90
9033;DHT22;4551;53.164;8.210;2023-05-10T03:42:31;14.80;99.90
9033;DHT22;4551;53.164;8.210;2023-05-10T03:44:59;14.80;99.90
9033;DHT22;4551;53.164;8.210;2023-05-10T03:47:29;14.80;99.90
9033;DHT22;4551;53.164;8.210;2023-05-10T03:49:58;14.90;99.90
9033;DHT22;4551;53.164;8.210;2023-05-10T03:52:26;14.80;99.90
9033;DHT22;4551;53.164;8.210;2023-05-10T03:54:55;14.80;99.90
9033;DHT22;4551;53.164;8.210;2023-05-10T03:57:23;14.80;99.90
9033;DHT22;4551;53.164;8.210;2023-05-10T03:59:51;14.70;99.90
9033;DHT22;4551;53.164;8.210;2023-05-10T04:02:19;14.60;99.90
9033;DHT22;4551;53.164;8.210;2023-05-10T04:04:47;14.70;99.90
9033;DHT22;4551;53.164;8.210;2023-05-10T04:07:15;14.60;99.90
9033;DHT22;4551;53.164;8.210;2023-05-10T04:09:44;14.60;99.90
9033;DHT22;4551;53.164;8.210;2023-05-10T04:12:13;14.60;99.90
9033;DHT22;4551;53.164;8.210;2023-05-10T04:14:41;14.50;99.90
9033;DHT22;4551;53.164;8.210;2023-05-10T04:17:11;14.50;99.90
9033;DHT22;4551;53.164;8.210;2023-05-10T04:19:39;14.50;99.90
9033;DHT22;4551;53.164;8.210;2023-05-10T04:22:07;14.40;99.90
9033;DHT22;4551;53.164;8.210;2023-05-10T04:24:35;14.40;99.90
9033;DHT22;4551;53.164;8.210;2023-05-10T04:27:03;14.40;99.90
9033;DHT22;4551;53.164;8.210;2023-05-10T04:29:32;14.40;99.90
9033;DHT22;4551;53.164;8.210;2023-05-10T04:32:00;14.30;99.90
9033;DHT22;4551;53.164;8.210;2023-05-10T04:34:30;14.30;99.90
9033;DHT22;4551;53.164;8.210;2023-05-10T04:37:00;14.20;99.90
9033;DHT22;4551;53.164;8.210;2023-05-10T04:39:28;14.20;99.90
9033;DHT22;4551;53.164;8.210;2023-05-10T04:41:56;14.20;99.90
9033;DHT22;4551;53.164;8.210;2023-05-10T04:44:24;14.20;99.90
9033;DHT22;4551;53.164;8.210;2023-05-10T04:46:55;14.10;99.90
9033;DHT22;4551;53.164;8.210;2023-05-10T04:49:24;14.20;99.90
9033;DHT22;4551;53.164;8.210;2023-05-10T04:51:54;14.10;99.90
9033;DHT22;4551;53.164;8.210;2023-05-10T04:54:25;14.10;99.90
9033;DHT22;4551;53.164;8.210;2023-05-10T04:56:54;14.10;99.90
9033;DHT22;4551;53.164;8.210;2023-05-10T04:59:22;14.00;99.90
9033;DHT22;4551;53.164;8.210;2023-05-10T05:01:50;13.90;99.90
9033;DHT22;4551;53.164;8.210;2023-05-10T05:04:20;13.80;99.90
9033;DHT22;4551;53.164;8.210;2023-05-10T05:06:51;13.80;99.90
9033;DHT22;4551;53.164;8.210;2023-05-10T05:09:19;13.80;99.90
9033;DHT22;4551;53.164;8.210;2023-05-10T05:11:47;13.70;99.90
9033;DHT22;4551;53.164;8.210;2023-05-10T05:14:15;13.60;99.90
9033;DHT22;4551;53.164;8.210;2023-05-10T05:16:47;13.60;99.90
9033;DHT22;4551;53.164;8.210;2023-05-10T05:19:15;13.60;99.90
9033;DHT22;4551;53.164;8.210;2023-05-10T05:21:45;13.60;99.90
9033;DHT22;4551;53.164;8.210;2023-05-10T05:24:13;13.60;99.90
9033;DHT22;4551;53.164;8.210;2023-05-10T05:26:44;13.60;99.90
9033;DHT22;4551;53.164;8.210;2023-05-10T05:29:12;13.50;99.90
9033;DHT22;4551;53.164;8.210;2023-05-10T05:31:40;13.50;99.90
9033;DHT22;4551;53.164;8.210;2023-05-10T05:34:08;13.50;99.90
9033;DHT22;4551;53.164;8.210;2023-05-10T05:36:36;13.50;99.90
9033;DHT22;4551;53.164;8.210;2023-05-10T05:39:20;13.40;99.90
9033;DHT22;4551;53.164;8.210;2023-05-10T05:41:49;13.50;99.90
9033;DHT22;4551;53.164;8.210;2023-05-10T05:44:16;13.40;99.90
9033;DHT22;4551;53.164;8.210;2023-05-10T05:46:44;13.40;99.90
9033;DHT22;4551;53.164;8.210;2023-05-10T05:49:12;13.40;99.90
9033;DHT22;4551;53.164;8.210;2023-05-10T05:51:40;13.50;99.90
9033;DHT22;4551;53.164;8.210;2023-05-10T05:54:12;13.40;99.90
9033;DHT22;4551;53.164;8.210;2023-05-10T05:56:46;13.50;99.90
9033;DHT22;4551;53.164;8.210;2023-05-10T05:59:14;13.40;99.90
9033;DHT22;4551;53.164;8.210;2023-05-10T06:01:42;13.40;99.90
9033;DHT22;4551;53.164;8.210;2023-05-10T06:04:10;13.50;99.90
9033;DHT22;4551;53.164;8.210;2023-05-10T06:06:39;13.40;99.90
9033;DHT22;4551;53.164;8.210;2023-05-10T06:09:07;13.40;99.90
9033;DHT22;4551;53.164;8.210;2023-05-10T06:11:35;13.40;99.90
9033;DHT22;4551;53.164;8.210;2023-05-10T06:14:04;13.40;99.90
9033;DHT22;4551;53.164;8.210;2023-05-10T06:16:34;13.40;99.90
9033;DHT22;4551;53.164;8.210;2023-05-10T06:19:02;13.40;99.90
9033;DHT22;4551;53.164;8.210;2023-05-10T06:21:30;13.40;99.90
9033;DHT22;4551;53.164;8.210;2023-05-10T06:23:59;13.40;99.90
9033;DHT22;4551;53.164;8.210;2023-05-10T06:26:27;13.40;99.90
9033;DHT22;4551;53.164;8.210;2023-05-10T06:28:55;13.50;99.90
9033;DHT22;4551;53.164;8.210;2023-05-10T06:31:24;13.40;99.90
9033;DHT22;4551;53.164;8.210;2023-05-10T06:33:52;13.40;99.90
9033;DHT22;4551;53.164;8.210;2023-05-10T06:36:22;13.40;99.90
9033;DHT22;4551;53.164;8.210;2023-05-10T06:38:51;13.40;99.90
9033;DHT22;4551;53.164;8.210;2023-05-10T06:41:19;13.50;99.90
9033;DHT22;4551;53.164;8.210;2023-05-10T06:43:50;13.50;99.90
9033;DHT22;4551;53.164;8.210;2023-05-10T06:46:18;13.50;99.90
9033;DHT22;4551;53.164;8.210;2023-05-10T06:48:47;13.40;99.90
9033;DHT22;4551;53.164;8.210;2023-05-10T06:51:15;13.50;99.90
9033;DHT22;4551;53.164;8.210;2023-05-10T06:53:44;13.50;99.90
9033;DHT22;4551;53.164;8.210;2023-05-10T06:56:12;13.50;99.90
9033;DHT22;4551;53.164;8.210;2023-05-10T06:58:40;13.50;99.90
9033;DHT22;4551;53.164;8.210;2023-05-10T07:01:08;13.50;99.90
9033;DHT22;4551;53.164;8.210;2023-05-10T07:03:36;13.50;99.90
9033;DHT22;4551;53.164;8.210;2023-05-10T07:06:06;13.50;99.90
9033;DHT22;4551;53.164;8.210;2023-05-10T07:08:44;13.50;99.90
9033;DHT22;4551;53.164;8.210;2023-05-10T07:11:12;13.60;99.90
9033;DHT22;4551;53.164;8.210;2023-05-10T07:13:40;13.60;99.90
9033;DHT22;4551;53.164;8.210;2023-05-10T07:16:10;13.30;99.90
9033;DHT22;4551;53.164;8.210;2023-05-10T07:18:38;13.60;99.90
9033;DHT22;4551;53.164;8.210;2023-05-10T07:21:08;13.60;99.90
9033;DHT22;4551;53.164;8.210;2023-05-10T07:23:36;13.60;99.90
9033;DHT22;4551;53.164;8.210;2023-05-10T07:26:04;13.50;99.90
9033;DHT22;4551;53.164;8.210;2023-05-10T07:28:32;13.40;99.90
9033;DHT22;4551;53.164;8.210;2023-05-10T07:31:00;13.40;99.90
9033;DHT22;4551;53.164;8.210;2023-05-10T07:33:28;13.50;99.90
9033;DHT22;4551;53.164;8.210;2023-05-10T07:35:56;13.50;99.90
9033;DHT22;4551;53.164;8.210;2023-05-10T07:38:25;13.50;99.90
9033;DHT22;4551;53.164;8.210;2023-05-10T07:40:53;13.50;99.90
9033;DHT22;4551;53.164;8.210;2023-05-10T07:43:22;13.60;99.90
9033;DHT22;4551;53.164;8.210;2023-05-10T07:45:49;13.60;99.90
9033;DHT22;4551;53.164;8.210;2023-05-10T07:48:21;13.50;99.90
9033;DHT22;4551;53.164;8.210;2023-05-10T07:50:49;13.60;99.90
9033;DHT22;4551;53.164;8.210;2023-05-10T07:53:17;13.60;99.90
9033;DHT22;4551;53.164;8.210;2023-05-10T07:55:50;13.60;99.90
9033;DHT22;4551;53.164;8.210;2023-05-10T07:58:19;13.40;99.90
9033;DHT22;4551;53.164;8.210;2023-05-10T08:00:47;13.40;99.90
9033;DHT22;4551;53.164;8.210;2023-05-10T08:03:15;13.50;99.90
9033;DHT22;4551;53.164;8.210;2023-05-10T08:05:44;13.50;99.90
9033;DHT22;4551;53.164;8.210;2023-05-10T08:08:12;13.40;99.90
9033;DHT22;4551;53.164;8.210;2023-05-10T08:10:40;13.30;99.90
9033;DHT22;4551;53.164;8.210;2023-05-10T08:13:09;13.40;99.90
9033;DHT22;4551;53.164;8.210;2023-05-10T08:15:37;13.40;99.90
9033;DHT22;4551;53.164;8.210;2023-05-10T08:18:06;13.40;99.90
9033;DHT22;4551;53.164;8.210;2023-05-10T08:20:34;13.50;99.90
9033;DHT22;4551;53.164;8.210;2023-05-10T08:23:02;13.50;99.90
9033;DHT22;4551;53.164;8.210;2023-05-10T08:25:30;13.40;99.90
9033;DHT22;4551;53.164;8.210;2023-05-10T08:27:59;13.50;99.90
9033;DHT22;4551;53.164;8.210;2023-05-10T08:30:28;13.50;99.90
9033;DHT22;4551;53.164;8.210;2023-05-10T08:32:56;13.50;99.90
9033;DHT22;4551;53.164;8.210;2023-05-10T08:35:24;13.60;99.90
9033;DHT22;4551;53.164;8.210;2023-05-10T08:37:52;13.60;99.90
9033;DHT22;4551;53.164;8.210;2023-05-10T08:40:20;13.60;99.90
9033;DHT22;4551;53.164;8.210;2023-05-10T08:42:53;13.50;99.90
9033;DHT22;4551;53.164;8.210;2023-05-10T08:45:22;13.60;99.90
9033;DHT22;4551;53.164;8.210;2023-05-10T08:47:52;13.60;99.90
9033;DHT22;4551;53.164;8.210;2023-05-10T08:50:20;13.60;99.90
9033;DHT22;4551;53.164;8.210;2023-05-10T08:52:49;13.50;99.90
9033;DHT22;4551;53.164;8.210;2023-05-10T08:55:18;13.60;99.90
9033;DHT22;4551;53.164;8.210;2023-05-10T08:57:46;13.60;99.90
9033;DHT22;4551;53.164;8.210;2023-05-10T09:00:14;13.70;99.90
9033;DHT22;4551;53.164;8.210;2023-05-10T09:02:43;13.80;99.90
9033;DHT22;4551;53.164;8.210;2023-05-10T09:05:14;13.90;99.90
9033;DHT22;4551;53.164;8.210;2023-05-10T09:07:43;13.90;99.90
9033;DHT22;4551;53.164;8.210;2023-05-10T09:10:11;13.80;99.90
9033;DHT22;4551;53.164;8.210;2023-05-10T09:12:40;13.80;99.90
9033;DHT22;4551;53.164;8.210;2023-05-10T09:15:08;13.80;99.90
9033;DHT22;4551;53.164;8.210;2023-05-10T09:17:37;13.70;99.90
9033;DHT22;4551;53.164;8.210;2023-05-10T09:20:06;13.80;99.90
9033;DHT22;4551;53.164;8.210;2023-05-10T09:22:36;13.80;99.90
9033;DHT22;4551;53.164;8.210;2023-05-10T09:25:05;13.70;99.90
9033;DHT22;4551;53.164;8.210;2023-05-10T09:27:33;13.70;99.90
9033;DHT22;4551;53.164;8.210;2023-05-10T09:30:01;13.70;99.90
9033;DHT22;4551;53.164;8.210;2023-05-10T09:32:36;13.80;99.90
9033;DHT22;4551;53.164;8.210;2023-05-10T09:35:08;13.70;99.90
9033;DHT22;4551;53.164;8.210;2023-05-10T09:37:37;13.80;99.90
9033;DHT22;4551;53.164;8.210;2023-05-10T09:40:10;13.80;99.90
9033;DHT22;4551;53.164;8.210;2023-05-10T09:42:39;13.80;99.90
9033;DHT22;4551;53.164;8.210;2023-05-10T09:45:08;13.80;99.90
9033;DHT22;4551;53.164;8.210;2023-05-10T09:47:36;13.80;99.90
9033;DHT22;4551;53.164;8.210;2023-05-10T09:50:05;13.80;99.90
9033;DHT22;4551;53.164;8.210;2023-05-10T09:52:45;13.80;99.90
9033;DHT22;4551;53.164;8.210;2023-05-10T09:55:14;13.90;99.90
9033;DHT22;4551;53.164;8.210;2023-05-10T09:57:42;14.00;99.90
9033;DHT22;4551;53.164;8.210;2023-05-10T10:00:11;14.20;99.90
9033;DHT22;4551;53.164;8.210;2023-05-10T10:02:44;14.20;99.90
9033;DHT22;4551;53.164;8.210;2023-05-10T10:05:13;14.40;99.90
9033;DHT22;4551;53.164;8.210;2023-05-10T10:07:43;14.60;99.90
9033;DHT22;4551;53.164;8.210;2023-05-10T10:10:11;14.70;99.90
9033;DHT22;4551;53.164;8.210;2023-05-10T10:12:40;14.80;99.90
9033;DHT22;4551;53.164;8.210;2023-05-10T10:15:08;14.70;99.90
9033;DHT22;4551;53.164;8.210;2023-05-10T10:17:36;14.60;99.90
9033;DHT22;4551;53.164;8.210;2023-05-10T10:20:06;14.60;99.90
9033;DHT22;4551;53.164;8.210;2023-05-10T10:22:37;14.60;99.90
9033;DHT22;4551;53.164;8.210;2023-05-10T10:25:07;14.60;99.90
9033;DHT22;4551;53.164;8.210;2023-05-10T10:27:38;14.60;99.90
9033;DHT22;4551;53.164;8.210;2023-05-10T10:30:13;14.70;99.90
9033;DHT22;4551;53.164;8.210;2023-05-10T10:32:47;14.90;99.90
9033;DHT22;4551;53.164;8.210;2023-05-10T10:35:19;14.80;99.90
9033;DHT22;4551;53.164;8.210;2023-05-10T10:37:48;14.80;99.90
9033;DHT22;4551;53.164;8.210;2023-05-10T10:40:28;14.60;99.90
9033;DHT22;4551;53.164;8.210;2023-05-10T10:45:43;14.40;99.90
9033;DHT22;4551;53.164;8.210;2023-05-10T10:48:19;14.40;99.90
9033;DHT22;4551;53.164;8.210;2023-05-10T10:50:51;14.30;99.90
9033;DHT22;4551;53.164;8.210;2023-05-10T10:53:25;14.30;99.90
9033;DHT22;4551;53.164;8.210;2023-05-10T10:56:03;14.40;99.90
9033;DHT22;4551;53.164;8.210;2023-05-10T10:58:33;14.40;99.90
9033;DHT22;4551;53.164;8.210;2023-05-10T11:01:14;14.40;99.90
9033;DHT22;4551;53.164;8.210;2023-05-10T11:03:54;14.50;99.90
9033;DHT22;4551;53.164;8.210;2023-05-10T11:06:42;14.60;99.90
9033;DHT22;4551;53.164;8.210;2023-05-10T11:09:10;14.50;99.90
9033;DHT22;4551;53.164;8.210;2023-05-10T11:11:50;14.50;99.90
9033;DHT22;4551;53.164;8.210;2023-05-10T11:14:19;14.60;99.90
9033;DHT22;4551;53.164;8.210;2023-05-10T11:16:47;14.60;99.90
9033;DHT22;4551;53.164;8.210;2023-05-10T11:19:16;14.80;99.90
9033;DHT22;4551;53.164;8.210;2023-05-10T11:21:45;14.80;99.90
9033;DHT22;4551;53.164;8.210;2023-05-10T11:24:13;14.90;99.90
9033;DHT22;4551;53.164;8.210;2023-05-10T11:26:41;14.90;99.90
9033;DHT22;4551;53.164;8.210;2023-05-10T11:29:11;14.80;99.90
9033;DHT22;4551;53.164;8.210;2023-05-10T11:31:43;14.70;99.90
9033;DHT22;4551;53.164;8.210;2023-05-10T11:34:12;14.60;99.90
9033;DHT22;4551;53.164;8.210;2023-05-10T11:36:50;14.50;99.90
9033;DHT22;4551;53.164;8.210;2023-05-10T11:39:20;14.40;99.90
9033;DHT22;4551;53.164;8.210;2023-05-10T11:41:48;14.30;99.90
9033;DHT22;4551;53.164;8.210;2023-05-10T11:44:18;14.20;99.90
9033;DHT22;4551;53.164;8.210;2023-05-10T11:46:46;14.20;99.90
9033;DHT22;4551;53.164;8.210;2023-05-10T11:49:14;14.20;99.90
9033;DHT22;4551;53.164;8.210;2023-05-10T11:51:42;14.30;99.90
9033;DHT22;4551;53.164;8.210;2023-05-10T11:54:10;14.30;99.90
9033;DHT22;4551;53.164;8.210;2023-05-10T11:56:39;14.30;99.90
9033;DHT22;4551;53.164;8.210;2023-05-10T11:59:07;14.20;99.90
9033;DHT22;4551;53.164;8.210;2023-05-10T12:01:37;14.20;99.90
9033;DHT22;4551;53.164;8.210;2023-05-10T12:04:05;14.10;99.90
9033;DHT22;4551;53.164;8.210;2023-05-10T12:06:40;14.10;99.90
9033;DHT22;4551;53.164;8.210;2023-05-10T12:09:08;14.00;99.90
9033;DHT22;4551;53.164;8.210;2023-05-10T12:11:37;14.00;99.90
9033;DHT22;4551;53.164;8.210;2023-05-10T12:14:09;14.00;99.90
9033;DHT22;4551;53.164;8.210;2023-05-10T12:16:39;14.00;99.90
9033;DHT22;4551;53.164;8.210;2023-05-10T12:19:07;14.00;99.90
9033;DHT22;4551;53.164;8.210;2023-05-10T12:21:35;14.00;99.90
9033;DHT22;4551;53.164;8.210;2023-05-10T12:24:05;14.10;99.90
9033;DHT22;4551;53.164;8.210;2023-05-10T12:26:33;14.00;99.90
9033;DHT22;4551;53.164;8.210;2023-05-10T12:29:12;14.10;99.90
9033;DHT22;4551;53.164;8.210;2023-05-10T12:31:54;14.10;99.90
9033;DHT22;4551;53.164;8.210;2023-05-10T12:34:25;14.00;99.90
9033;DHT22;4551;53.164;8.210;2023-05-10T12:36:54;14.10;99.90
9033;DHT22;4551;53.164;8.210;2023-05-10T12:39:22;14.20;99.90
9033;DHT22;4551;53.164;8.210;2023-05-10T12:41:50;14.20;99.90
9033;DHT22;4551;53.164;8.210;2023-05-10T12:44:18;14.20;99.90
9033;DHT22;4551;53.164;8.210;2023-05-10T12:46:46;14.20;99.90
9033;DHT22;4551;53.164;8.210;2023-05-10T12:49:15;14.30;99.90
9033;DHT22;4551;53.164;8.210;2023-05-10T12:51:45;14.40;99.90
9033;DHT22;4551;53.164;8.210;2023-05-10T12:54:13;14.50;99.90
9033;DHT22;4551;53.164;8.210;2023-05-10T12:56:42;14.60;99.90
9033;DHT22;4551;53.164;8.210;2023-05-10T12:59:10;14.70;99.90
9033;DHT22;4551;53.164;8.210;2023-05-10T13:01:38;14.80;99.90
9033;DHT22;4551;53.164;8.210;2023-05-10T13:04:06;14.80;99.90
9033;DHT22;4551;53.164;8.210;2023-05-10T13:06:36;14.90;99.90
9033;DHT22;4551;53.164;8.210;2023-05-10T13:09:04;14.90;99.90
9033;DHT22;4551;53.164;8.210;2023-05-10T13:11:32;15.00;99.90
9033;DHT22;4551;53.164;8.210;2023-05-10T13:14:00;15.10;99.90
9033;DHT22;4551;53.164;8.210;2023-05-10T13:16:29;15.00;99.90
9033;DHT22;4551;53.164;8.210;2023-05-10T13:18:57;15.00;99.90
9033;DHT22;4551;53.164;8.210;2023-05-10T13:21:26;14.90;99.90
9033;DHT22;4551;53.164;8.210;2023-05-10T13:23:56;14.90;99.90
9033;DHT22;4551;53.164;8.210;2023-05-10T13:26:24;14.90;99.90
9033;DHT22;4551;53.164;8.210;2023-05-10T13:28:52;14.90;99.90
9033;DHT22;4551;53.164;8.210;2023-05-10T13:31:22;14.80;99.90
9033;DHT22;4551;53.164;8.210;2023-05-10T13:33:50;14.80;99.90
9033;DHT22;4551;53.164;8.210;2023-05-10T13:36:18;14.80;99.90
9033;DHT22;4551;53.164;8.210;2023-05-10T13:38:46;14.80;99.90
9033;DHT22;4551;53.164;8.210;2023-05-10T13:41:16;14.80;99.90
9033;DHT22;4551;53.164;8.210;2023-05-10T13:43:44;14.80;99.90
9033;DHT22;4551;53.164;8.210;2023-05-10T13:46:12;14.80;99.90
9033;DHT22;4551;53.164;8.210;2023-05-10T13:48:40;14.90;99.90
9033;DHT22;4551;53.164;8.210;2023-05-10T13:51:08;15.10;99.90
9033;DHT22;4551;53.164;8.210;2023-05-10T13:53:38;15.30;99.90
9033;DHT22;4551;53.164;8.210;2023-05-10T13:56:06;15.40;99.90
9033;DHT22;4551;53.164;8.210;2023-05-10T13:58:35;15.60;99.90
9033;DHT22;4551;53.164;8.210;2023-05-10T14:01:03;15.60;99.90
9033;DHT22;4551;53.164;8.210;2023-05-10T14:03:32;15.50;99.90
9033;DHT22;4551;53.164;8.210;2023-05-10T14:06:00;15.60;99.90
9033;DHT22;4551;53.164;8.210;2023-05-10T14:08:29;15.50;99.90
9033;DHT22;4551;53.164;8.210;2023-05-10T14:10:57;15.40;99.90
9033;DHT22;4551;53.164;8.210;2023-05-10T14:13:25;15.40;99.90
9033;DHT22;4551;53.164;8.210;2023-05-10T14:15:54;15.40;99.90
9033;DHT22;4551;53.164;8.210;2023-05-10T14:18:22;15.30;99.90
9033;DHT22;4551;53.164;8.210;2023-05-10T14:20:50;15.30;99.90
9033;DHT22;4551;53.164;8.210;2023-05-10T14:23:18;15.20;99.90
9033;DHT22;4551;53.164;8.210;2023-05-10T14:25:50;15.80;99.90
9033;DHT22;4551;53.164;8.210;2023-05-10T14:28:18;15.20;99.90
9033;DHT22;4551;53.164;8.210;2023-05-10T14:30:47;15.20;99.90
9033;DHT22;4551;53.164;8.210;2023-05-10T14:33:17;15.20;99.90
9033;DHT22;4551;53.164;8.210;2023-05-10T14:35:45;15.20;99.90
9033;DHT22;4551;53.164;8.210;2023-05-10T14:38:13;15.20;99.90
9033;DHT22;4551;53.164;8.210;2023-05-10T14:40:41;15.30;99.90
9033;DHT22;4551;53.164;8.210;2023-05-10T14:43:09;15.40;99.90
9033;DHT22;4551;53.164;8.210;2023-05-10T14:45:37;15.50;99.90
9033;DHT22;4551;53.164;8.210;2023-05-10T14:48:05;15.60;99.90
9033;DHT22;4551;53.164;8.210;2023-05-10T14:50:39;15.60;99.90
9033;DHT22;4551;53.164;8.210;2023-05-10T14:53:07;15.50;99.90
9033;DHT22;4551;53.164;8.210;2023-05-10T14:55:35;15.50;99.90
9033;DHT22;4551;53.164;8.210;2023-05-10T14:58:03;15.50;99.90
9033;DHT22;4551;53.164;8.210;2023-05-10T15:00:31;15.50;99.90
9033;DHT22;4551;53.164;8.210;2023-05-10T15:03:00;15.40;99.90
9033;DHT22;4551;53.164;8.210;2023-05-10T15:05:29;15.30;99.90
9033;DHT22;4551;53.164;8.210;2023-05-10T15:07:59;15.30;99.90
9033;DHT22;4551;53.164;8.210;2023-05-10T15:10:27;15.20;99.90
9033;DHT22;4551;53.164;8.210;2023-05-10T15:12:57;15.20;99.90
9033;DHT22;4551;53.164;8.210;2023-05-10T15:15:25;15.20;99.90
9033;DHT22;4551;53.164;8.210;2023-05-10T15:17:53;15.30;99.90
9033;DHT22;4551;53.164;8.210;2023-05-10T15:20:21;15.30;99.90
9033;DHT22;4551;53.164;8.210;2023-05-10T15:22:49;15.30;99.90
9033;DHT22;4551;53.164;8.210;2023-05-10T15:25:19;15.30;99.90
9033;DHT22;4551;53.164;8.210;2023-05-10T15:27:47;15.30;99.90
9033;DHT22;4551;53.164;8.210;2023-05-10T15:30:15;15.40;99.90
9033;DHT22;4551;53.164;8.210;2023-05-10T15:32:43;15.40;99.90
9033;DHT22;4551;53.164;8.210;2023-05-10T15:35:11;15.50;99.90
9033;DHT22;4551;53.164;8.210;2023-05-10T15:37:39;15.60;99.90
9033;DHT22;4551;53.164;8.210;2023-05-10T15:40:07;15.70;99.90
9033;DHT22;4551;53.164;8.210;2023-05-10T15:42:36;15.80;99.90
9033;DHT22;4551;53.164;8.210;2023-05-10T15:45:05;15.70;99.90
9033;DHT22;4551;53.164;8.210;2023-05-10T15:47:33;15.90;99.90
9033;DHT22;4551;53.164;8.210;2023-05-10T15:50:01;16.00;99.90
9033;DHT22;4551;53.164;8.210;2023-05-10T15:52:30;16.20;99.90
9033;DHT22;4551;53.164;8.210;2023-05-10T15:54:58;16.30;99.90
9033;DHT22;4551;53.164;8.210;2023-05-10T15:57:26;16.40;99.90
9033;DHT22;4551;53.164;8.210;2023-05-10T15:59:55;16.70;99.90
9033;DHT22;4551;53.164;8.210;2023-05-10T16:02:23;16.70;99.90
9033;DHT22;4551;53.164;8.210;2023-05-10T16:04:51;16.60;99.90
9033;DHT22;4551;53.164;8.210;2023-05-10T16:07:20;16.50;99.90
9033;DHT22;4551;53.164;8.210;2023-05-10T16:09:48;16.60;99.90
9033;DHT22;4551;53.164;8.210;2023-05-10T16:12:16;16.60;99.90
9033;DHT22;4551;53.164;8.210;2023-05-10T16:14:44;16.60;99.90
9033;DHT22;4551;53.164;8.210;2023-05-10T16:17:13;16.60;99.90
9033;DHT22;4551;53.164;8.210;2023-05-10T16:19:42;16.60;99.90